Bryant, Wisconsin
Current Conditions -  °F | °C
As of 1:15 AM on Sunday 23 Nov 2014 (Local Time) from KAIG Reporting Station
Moderate Fog Moderate Fog  
Wind Chill: 27°   Ceiling: 300
Heat Index: 35°   Visibility: 0.25mi
Dew Point: 35°   Wind: 9mph
Humidity: 100%   Direction: 150°SSE
Pressure: 29.64"   Gusts: NA
Location:  45.21°N, 89.02°W
Report Text: KAIG 230715Z AUTO 15008KT 1/4SM FG OVC003 02/02 A2964 RMK AO2 T00150015
Loading
Personal Weather Stations






























Interactive Weather Map New forecast layout! Learn more

10-Day Weather Forecast

Advertisements
Track Severe Weather on mobile